Time;durP1;ratioP1;P1;durP2;ratioP2;P2;SDS_P1;SDS_P2;PMS_P1;PMS_P2;Temp;Humidity;BMP_temperature;BMP_pressure;BME280_temperature;BME280_humidity;BME280_pressure;Samples;Min_cycle;Max_cycle;Signal;HPM_P1;HPM_P2
2022/04/06 00:00:40;;;;;;;7.50;6.80;;;9.40;99.90;;;;;;5044994;28;20477;-81
2022/04/06 00:03:24;;;;;;;6.93;5.70;;;9.40;99.90;;;;;;5044773;28;20880;-80
2022/04/06 00:06:09;;;;;;;8.83;6.83;;;9.50;99.90;;;;;;5059087;28;20444;-81
2022/04/06 00:08:53;;;;;;;6.80;6.10;;;9.60;99.90;;;;;;5059359;28;20517;-80
2022/04/06 00:11:37;;;;;;;11.27;7.13;;;9.60;99.90;;;;;;5058741;28;20453;-81
2022/04/06 00:14:22;;;;;;;6.77;5.23;;;9.50;99.90;;;;;;5058427;28;20532;-81
2022/04/06 00:17:07;;;;;;;9.30;7.00;;;9.50;99.90;;;;;;5045092;28;20822;-81
2022/04/06 00:19:51;;;;;;;7.57;6.77;;;9.50;99.90;;;;;;5058785;28;20463;-80
2022/04/06 00:22:36;;;;;;;6.33;5.73;;;9.60;99.90;;;;;;5058574;28;20444;-80
2022/04/06 00:25:20;;;;;;;6.67;6.07;;;9.50;99.90;;;;;;5065597;28;20419;-81
2022/04/06 00:28:05;;;;;;;10.47;6.73;;;9.50;99.90;;;;;;5081907;28;20445;-81
2022/04/06 00:30:49;;;;;;;6.93;6.23;;;9.50;99.90;;;;;;5082445;28;20406;-81
2022/04/06 00:33:35;;;;;;;8.27;6.30;;;9.50;99.90;;;;;;5081387;28;20385;-81
2022/04/06 00:36:20;;;;;;;11.90;8.40;;;9.60;99.90;;;;;;5080527;28;20401;-81
2022/04/06 00:39:05;;;;;;;9.03;6.40;;;9.50;99.90;;;;;;5080952;28;20473;-80
2022/04/06 00:41:50;;;;;;;8.63;6.07;;;9.50;99.90;;;;;;5093332;28;20449;-81
2022/04/06 00:44:35;;;;;;;7.83;6.17;;;9.40;99.90;;;;;;5094535;28;20480;-80
2022/04/06 00:47:20;;;;;;;6.43;5.80;;;9.40;99.90;;;;;;5095517;28;20449;-81
2022/04/06 00:50:05;;;;;;;7.23;5.83;;;9.60;99.90;;;;;;5094789;28;20477;-80
2022/04/06 00:52:55;;;;;;;8.53;5.83;;;9.50;99.90;;;;;;5072763;28;20413;-81
2022/04/06 00:55:40;;;;;;;6.73;6.10;;;9.50;99.90;;;;;;5058725;28;20826;-81
2022/04/06 00:58:24;;;;;;;6.13;5.47;;;9.40;99.90;;;;;;5058411;28;20798;-81
2022/04/06 01:01:09;;;;;;;8.27;6.83;;;9.40;99.90;;;;;;5060933;28;20440;-83
2022/04/06 01:03:54;;;;;;;10.40;6.33;;;9.40;99.90;;;;;;5062765;28;20484;-81
2022/04/06 01:06:46;;;;;;;8.30;6.30;;;9.40;99.90;;;;;;5064501;28;20892;-81
2022/04/06 01:09:31;;;;;;;7.53;6.87;;;9.40;99.90;;;;;;5067327;28;20425;-81
2022/04/06 01:12:15;;;;;;;9.10;7.20;;;9.40;99.90;;;;;;5067677;28;20414;-81
2022/04/06 01:15:00;;;;;;;8.83;6.67;;;9.50;99.90;;;;;;5052154;28;20382;-82
2022/04/06 01:17:45;;;;;;;7.07;6.37;;;9.50;99.90;;;;;;5050339;28;20423;-81
2022/04/06 01:20:33;;;;;;;8.40;7.40;;;9.60;99.90;;;;;;5061657;28;20455;-81
2022/04/06 01:23:18;;;;;;;8.83;6.30;;;9.60;99.90;;;;;;5070827;28;20439;-81
2022/04/06 01:26:02;;;;;;;6.50;5.87;;;9.60;99.90;;;;;;5054763;28;20377;-81
2022/04/06 01:28:47;;;;;;;8.30;6.53;;;9.60;99.90;;;;;;5083256;28;20739;-81
2022/04/06 01:31:31;;;;;;;6.87;6.27;;;9.50;99.90;;;;;;5082109;28;20385;-81
2022/04/06 01:34:16;;;;;;;9.40;7.40;;;9.50;99.90;;;;;;5083184;28;20397;-81
2022/04/06 01:37:05;;;;;;;8.70;6.93;;;9.60;99.90;;;;;;5082019;28;20436;-81
2022/04/06 01:39:50;;;;;;;8.37;7.00;;;9.60;99.90;;;;;;5082622;28;20890;-81
2022/04/06 01:42:38;;;;;;;7.30;5.67;;;9.60;99.90;;;;;;5082127;28;20440;-81
2022/04/06 01:45:22;;;;;;;9.57;7.07;;;9.60;99.90;;;;;;5083627;28;20396;-81
2022/04/06 01:48:09;;;;;;;8.47;5.93;;;9.60;99.90;;;;;;5082789;28;20551;-81
2022/04/06 01:53:53;;;;;;;9.50;7.63;;;9.60;99.90;;;;;;5082958;28;20393;-82
2022/04/06 01:56:38;;;;;;;8.17;6.47;;;9.60;99.90;;;;;;5083035;28;20451;-81
2022/04/06 01:59:26;;;;;;;6.63;5.63;;;9.60;99.90;;;;;;5083948;28;20392;-81
2022/04/06 02:02:13;;;;;;;7.93;6.40;;;9.60;99.90;;;;;;5082233;28;20415;-81
2022/04/06 02:04:59;;;;;;;8.83;7.10;;;9.70;99.90;;;;;;5083385;28;20404;-80
2022/04/06 02:07:46;;;;;;;9.87;6.67;;;9.60;99.90;;;;;;5082903;28;20505;-81
2022/04/06 02:10:31;;;;;;;10.43;5.43;;;9.70;99.90;;;;;;5081022;28;20460;-79
2022/04/06 02:13:16;;;;;;;7.03;6.40;;;9.60;99.90;;;;;;5080483;28;20401;-81
2022/04/06 02:16:02;;;;;;;7.10;6.40;;;9.60;99.90;;;;;;5025847;28;20458;-81
2022/04/06 02:18:47;;;;;;;7.97;5.37;;;9.70;99.90;;;;;;5040609;28;20399;-81
2022/04/06 02:21:32;;;;;;;7.13;6.43;;;9.60;99.90;;;;;;5026178;28;20410;-82
2022/04/06 02:24:18;;;;;;;7.40;6.00;;;9.70;99.90;;;;;;5026290;28;20430;-81
2022/04/06 02:27:07;;;;;;;8.33;5.80;;;9.60;99.90;;;;;;5027012;28;20441;-80
2022/04/06 02:29:51;;;;;;;6.50;5.90;;;9.60;99.90;;;;;;5026568;28;20410;-82
2022/04/06 02:32:36;;;;;;;8.17;5.40;;;9.60;99.90;;;;;;5040042;28;20383;-81
2022/04/06 02:35:20;;;;;;;6.47;5.83;;;9.70;99.90;;;;;;5025620;28;20434;-81
2022/04/06 02:38:04;;;;;;;6.00;5.40;;;9.60;99.90;;;;;;5042830;28;20395;-81
2022/04/06 02:40:49;;;;;;;7.30;6.60;;;9.70;99.90;;;;;;5043072;28;20418;-81
2022/04/06 02:43:34;;;;;;;7.07;6.30;;;9.60;99.90;;;;;;5042726;28;20395;-81
2022/04/06 02:46:18;;;;;;;6.73;6.23;;;9.60;99.90;;;;;;5049838;28;20424;-81
2022/04/06 02:49:06;;;;;;;10.07;6.13;;;9.60;99.90;;;;;;5043732;28;20462;-81
2022/04/06 02:51:51;;;;;;;7.77;6.67;;;9.60;99.90;;;;;;5044385;28;20405;-80
2022/04/06 02:54:35;;;;;;;6.60;6.10;;;9.60;99.90;;;;;;5070540;28;20381;-81
2022/04/06 02:57:19;;;;;;;6.37;5.33;;;9.60;99.90;;;;;;5086079;28;20399;-81
2022/04/06 03:00:04;;;;;;;6.70;6.10;;;9.60;99.90;;;;;;5085336;28;20429;-80
2022/04/06 03:02:50;;;;;;;8.63;7.00;;;9.60;99.90;;;;;;5073990;28;20538;-80
2022/04/06 03:05:34;;;;;;;7.73;6.37;;;9.60;99.90;;;;;;5087667;28;20515;-81
2022/04/06 03:08:19;;;;;;;6.47;5.77;;;9.60;99.90;;;;;;5085605;28;20781;-81
2022/04/06 03:11:03;;;;;;;8.77;6.37;;;9.60;99.90;;;;;;5086123;28;20519;-81
2022/04/06 03:13:50;;;;;;;8.07;6.57;;;9.60;99.90;;;;;;5087635;28;20423;-80
2022/04/06 03:16:39;;;;;;;8.97;7.60;;;9.60;99.90;;;;;;5092411;28;20873;-80
2022/04/06 03:19:24;;;;;;;9.43;6.67;;;9.60;99.90;;;;;;5034894;28;20429;-81
2022/04/06 03:22:08;;;;;;;7.03;6.33;;;9.60;99.90;;;;;;5027104;28;20398;-80
2022/04/06 03:24:56;;;;;;;6.80;6.20;;;9.60;99.90;;;;;;5001394;28;20412;-81
2022/04/06 03:27:40;;;;;;;9.37;7.80;;;9.60;99.90;;;;;;4986727;28;20519;-81
2022/04/06 03:30:24;;;;;;;6.60;6.00;;;9.60;99.90;;;;;;5012923;28;20388;-79
2022/04/06 03:33:09;;;;;;;8.63;7.40;;;9.60;99.90;;;;;;5011473;28;20763;-80
2022/04/06 03:35:54;;;;;;;9.67;5.90;;;9.60;99.90;;;;;;5002137;28;20404;-78
2022/04/06 03:38:42;;;;;;;10.20;7.53;;;9.60;99.90;;;;;;5000034;28;20417;-81
2022/04/06 03:41:26;;;;;;;8.97;8.00;;;9.60;99.90;;;;;;5000047;28;20458;-80
2022/04/06 03:44:10;;;;;;;9.50;8.50;;;9.60;99.90;;;;;;4999910;28;20448;-81
2022/04/06 03:46:56;;;;;;;10.10;7.47;;;9.60;99.90;;;;;;4986000;28;20556;-81
2022/04/06 03:49:40;;;;;;;9.57;7.57;;;9.60;99.90;;;;;;5017652;28;20944;-81
2022/04/06 03:52:25;;;;;;;8.73;7.20;;;9.50;99.90;;;;;;5059337;28;20451;-80
2022/04/06 03:55:10;;;;;;;8.77;7.80;;;9.50;99.90;;;;;;5065418;28;20823;-80
2022/04/06 03:57:54;;;;;;;6.83;6.20;;;9.50;99.90;;;;;;5073174;28;20418;-81
2022/04/06 04:00:39;;;;;;;9.50;8.60;;;9.50;99.90;;;;;;5050691;28;20460;-79
2022/04/06 04:03:23;;;;;;;8.70;6.60;;;9.50;99.90;;;;;;5038418;28;20514;-81
2022/04/06 04:06:08;;;;;;;8.20;7.50;;;9.40;99.90;;;;;;5047815;28;20556;-80
2022/04/06 04:08:54;;;;;;;7.17;6.57;;;9.50;99.90;;;;;;5056391;28;20444;-81
2022/04/06 04:11:38;;;;;;;9.70;8.00;;;9.50;99.90;;;;;;5069679;28;20533;-80
2022/04/06 04:14:24;;;;;;;9.50;8.27;;;9.60;99.90;;;;;;5077966;28;20451;-82
2022/04/06 04:17:08;;;;;;;8.90;7.93;;;9.60;99.90;;;;;;5078350;28;20412;-81
2022/04/06 04:19:52;;;;;;;9.87;7.50;;;9.60;99.90;;;;;;5078182;28;20974;-81
2022/04/06 04:22:37;;;;;;;9.60;8.20;;;9.60;99.90;;;;;;5072922;28;20452;-81
2022/04/06 04:25:22;;;;;;;9.10;8.07;;;9.50;99.90;;;;;;5061244;28;20424;-80
2022/04/06 04:28:06;;;;;;;9.70;8.43;;;9.50;99.90;;;;;;5064283;28;20456;-80
2022/04/06 04:30:50;;;;;;;9.80;8.90;;;9.60;99.90;;;;;;5081706;28;20404;-80
2022/04/06 04:33:35;;;;;;;9.33;8.47;;;9.50;99.90;;;;;;5038262;28;20417;-80
2022/04/06 04:36:20;;;;;;;14.03;10.30;;;9.60;99.90;;;;;;5048048;28;20421;-81
2022/04/06 04:39:05;;;;;;;7.70;6.90;;;9.70;99.90;;;;;;5039791;28;20395;-80
2022/04/06 04:41:50;;;;;;;13.03;8.47;;;9.50;99.90;;;;;;5040178;28;20379;-81
2022/04/06 04:44:35;;;;;;;10.63;9.53;;;9.50;99.90;;;;;;5040027;28;20395;-81
2022/04/06 04:47:20;;;;;;;8.13;7.30;;;9.60;99.90;;;;;;5038057;28;20565;-81
2022/04/06 04:50:09;;;;;;;8.07;7.07;;;9.50;99.90;;;;;;5070756;28;20445;-81
2022/04/06 04:52:53;;;;;;;9.40;6.70;;;9.60;99.90;;;;;;5057808;28;20377;-81
2022/04/06 04:55:38;;;;;;;11.47;8.30;;;9.50;99.90;;;;;;5072599;28;20448;-80
2022/04/06 04:58:23;;;;;;;9.57;8.30;;;9.60;99.90;;;;;;5072763;28;20831;-81
2022/04/06 05:01:08;;;;;;;10.33;8.10;;;9.50;99.90;;;;;;5047370;28;20421;-80
2022/04/06 05:03:56;;;;;;;9.07;8.20;;;9.50;99.90;;;;;;5050196;28;20562;-81
2022/04/06 05:06:40;;;;;;;11.40;8.30;;;9.40;99.90;;;;;;5047677;28;20454;-82
2022/04/06 05:09:25;;;;;;;12.63;8.10;;;9.40;99.90;;;;;;5007742;28;20383;-79
2022/04/06 05:12:09;;;;;;;11.20;7.40;;;9.30;99.90;;;;;;5034764;28;20513;-80
2022/04/06 05:14:54;;;;;;;12.43;7.67;;;9.30;99.90;;;;;;5044987;28;20498;-81
2022/04/06 05:17:40;;;;;;;11.30;7.97;;;9.40;99.90;;;;;;5031946;28;20521;-80
2022/04/06 05:20:24;;;;;;;10.27;9.17;;;9.40;99.90;;;;;;5078074;28;20464;-81
2022/04/06 05:23:09;;;;;;;10.17;9.20;;;9.40;99.90;;;;;;5079272;28;20382;-80
2022/04/06 05:25:53;;;;;;;15.10;8.57;;;9.30;99.90;;;;;;5070260;28;20434;-79
2022/04/06 05:28:38;;;;;;;11.00;8.30;;;9.30;99.90;;;;;;5044169;28;20390;-82
2022/04/06 05:31:23;;;;;;;8.20;7.40;;;9.40;99.90;;;;;;5044238;28;20820;-81
2022/04/06 05:34:07;;;;;;;9.60;8.60;;;9.40;99.90;;;;;;5050041;28;20443;-80
2022/04/06 05:36:52;;;;;;;9.83;8.83;;;9.40;99.90;;;;;;5072945;28;20926;-81
2022/04/06 05:39:36;;;;;;;10.00;9.00;;;9.40;99.90;;;;;;5045978;28;20402;-81
2022/04/06 05:42:21;;;;;;;8.93;8.03;;;9.40;99.90;;;;;;5066421;28;20444;-81
2022/04/06 05:45:06;;;;;;;12.03;8.90;;;9.40;99.90;;;;;;5045591;28;20463;-81
2022/04/06 05:47:54;;;;;;;12.97;8.63;;;9.50;99.90;;;;;;5047696;28;20492;-81
2022/04/06 05:50:39;;;;;;;12.00;8.37;;;9.60;99.90;;;;;;5051773;28;20413;-80
2022/04/06 05:53:45;;;;;;;13.23;10.10;;;9.50;99.90;;;;;;5058238;28;20958;-82
2022/04/06 05:56:32;;;;;;;11.10;9.53;;;9.50;99.90;;;;;;5029730;28;20473;-82
2022/04/06 05:59:19;;;;;;;9.90;7.70;;;9.50;99.90;;;;;;5044231;28;20421;-81
2022/04/06 06:02:04;;;;;;;11.67;9.67;;;9.50;99.90;;;;;;5038693;28;20429;-81
2022/04/06 06:04:50;;;;;;;10.63;9.53;;;9.60;99.90;;;;;;5042628;28;20541;-82
2022/04/06 06:07:34;;;;;;;8.77;7.27;;;9.60;99.90;;;;;;5031825;28;20478;-82
2022/04/06 06:10:19;;;;;;;8.30;7.40;;;9.60;99.90;;;;;;5028362;28;20431;-80
2022/04/06 06:13:04;;;;;;;7.60;6.73;;;9.70;99.90;;;;;;5052875;28;21190;-82
2022/04/06 06:15:48;;;;;;;12.63;8.20;;;9.60;99.90;;;;;;5040775;28;20409;-82
2022/04/06 06:18:33;;;;;;;9.33;7.70;;;9.60;99.90;;;;;;5067221;28;20494;-81
2022/04/06 06:21:17;;;;;;;11.93;9.20;;;9.70;99.90;;;;;;5057440;28;20486;-81
2022/04/06 06:24:05;;;;;;;9.10;7.20;;;9.70;99.90;;;;;;5037095;28;21110;-82
2022/04/06 06:26:52;;;;;;;7.40;6.10;;;9.80;99.90;;;;;;5082512;28;20947;-81
2022/04/06 06:29:36;;;;;;;8.73;7.83;;;9.70;99.90;;;;;;5074444;28;20420;-80
2022/04/06 06:32:21;;;;;;;9.90;7.60;;;9.80;99.90;;;;;;5068745;28;20463;-81
2022/04/06 06:35:08;;;;;;;9.47;7.00;;;9.90;99.90;;;;;;5048486;28;20495;-81
2022/04/06 06:37:54;;;;;;;10.13;6.67;;;9.80;99.90;;;;;;5074699;28;20488;-82
2022/04/06 06:40:41;;;;;;;8.90;8.00;;;9.80;99.90;;;;;;5071144;28;20463;-83
2022/04/06 06:43:25;;;;;;;7.90;7.10;;;9.90;99.90;;;;;;5063750;28;20425;-82
2022/04/06 06:46:10;;;;;;;9.40;7.63;;;9.90;99.90;;;;;;5076260;28;20436;-82
2022/04/06 06:49:02;;;;;;;8.90;8.00;;;10.00;99.90;;;;;;5065832;28;20495;-81
2022/04/06 06:51:48;;;;;;;7.80;7.00;;;9.90;99.90;;;;;;5064071;28;20472;-82
2022/04/06 06:54:34;;;;;;;8.97;7.60;;;10.00;99.90;;;;;;5074315;28;20821;-82
2022/04/06 06:57:38;;;;;;;10.60;7.67;;;10.00;99.90;;;;;;5034074;28;20458;-80
2022/04/06 07:00:23;;;;;;;11.50;10.10;;;10.00;99.90;;;;;;5054205;28;20438;-81
2022/04/06 07:03:08;;;;;;;9.10;7.30;;;10.10;99.90;;;;;;5057143;28;20465;-82
2022/04/06 07:05:52;;;;;;;8.90;7.87;;;10.00;99.90;;;;;;5047020;28;20580;-79
2022/04/06 07:08:37;;;;;;;9.13;8.07;;;10.00;99.90;;;;;;5055086;28;20948;-82
2022/04/06 07:11:22;;;;;;;8.57;6.70;;;10.00;99.90;;;;;;5014655;28;21057;-81
2022/04/06 07:14:07;;;;;;;8.70;7.80;;;10.10;99.90;;;;;;5043055;28;20506;-82
2022/04/06 07:16:51;;;;;;;9.67;7.50;;;10.10;99.90;;;;;;5017778;28;20502;-81
2022/04/06 07:19:36;;;;;;;8.50;7.60;;;10.10;99.90;;;;;;5004686;28;20439;-80
2022/04/06 07:22:20;;;;;;;9.77;7.90;;;10.30;99.90;;;;;;5031179;28;20502;-83
2022/04/06 07:25:08;;;;;;;7.20;6.50;;;10.30;99.90;;;;;;5047823;28;20449;-81
2022/04/06 07:27:53;;;;;;;8.67;7.13;;;10.40;99.90;;;;;;5052194;28;20479;-79
2022/04/06 07:30:38;;;;;;;8.13;7.43;;;10.40;99.90;;;;;;5060274;28;20473;-81
2022/04/06 07:33:23;;;;;;;9.80;8.00;;;10.40;99.90;;;;;;5051678;28;20452;-81
2022/04/06 07:36:07;;;;;;;7.50;5.93;;;10.40;99.90;;;;;;5051704;28;20502;-82
2022/04/06 07:38:52;;;;;;;6.50;5.40;;;10.50;99.90;;;;;;5042283;28;20422;-81
2022/04/06 07:41:36;;;;;;;7.03;4.60;;;10.50;99.90;;;;;;5059315;28;21112;-82
2022/04/06 07:44:20;;;;;;;7.33;5.63;;;10.60;99.90;;;;;;5047999;28;20438;-80
2022/04/06 07:47:05;;;;;;;6.83;4.87;;;10.80;99.90;;;;;;5049510;28;20458;-80
2022/04/06 07:49:50;;;;;;;4.60;3.93;;;10.80;99.90;;;;;;5032969;28;20460;-82
2022/04/06 07:52:56;;;;;;;7.67;5.30;;;11.10;99.90;;;;;;5055460;28;20825;-81
2022/04/06 07:55:41;;;;;;;6.90;5.17;;;11.00;99.90;;;;;;5027098;28;20501;-82
2022/04/06 07:58:26;;;;;;;5.80;5.20;;;11.20;99.90;;;;;;4989659;28;20507;-82
2022/04/06 08:01:11;;;;;;;4.87;4.37;;;11.30;99.90;;;;;;5031746;28;20442;-81
2022/04/06 08:03:55;;;;;;;5.93;4.33;;;11.30;99.90;;;;;;5032251;28;20492;-81
2022/04/06 08:06:40;;;;;;;6.63;4.53;;;11.60;99.90;;;;;;5028591;28;20458;-82
2022/04/06 08:09:24;;;;;;;5.77;4.80;;;11.50;99.90;;;;;;5037300;28;20470;-81
2022/04/06 08:12:10;;;;;;;4.43;4.03;;;11.60;99.90;;;;;;5049101;28;20993;-81
2022/04/06 08:14:54;;;;;;;8.20;4.50;;;11.50;99.90;;;;;;5039905;28;20417;-81
2022/04/06 08:17:41;;;;;;;6.03;4.97;;;11.80;99.90;;;;;;5046933;28;20452;-82
2022/04/06 08:20:26;;;;;;;6.30;5.37;;;11.40;99.90;;;;;;5042395;28;20896;-82
2022/04/06 08:23:11;;;;;;;6.83;4.70;;;11.60;99.90;;;;;;5047239;28;20481;-82
2022/04/06 08:25:55;;;;;;;6.47;4.80;;;11.80;99.90;;;;;;5032083;28;20438;-83
2022/04/06 08:28:40;;;;;;;7.10;5.10;;;11.80;99.90;;;;;;5037853;28;20511;-80
2022/04/06 08:31:25;;;;;;;5.87;4.43;;;11.80;99.90;;;;;;5069048;28;20530;-82
2022/04/06 08:34:10;;;;;;;6.03;4.70;;;11.80;99.90;;;;;;5069147;28;20498;-82
2022/04/06 08:36:55;;;;;;;5.30;4.80;;;11.70;99.90;;;;;;5073442;28;20404;-81
2022/04/06 08:39:40;;;;;;;6.10;4.80;;;11.70;99.90;;;;;;5073785;28;20475;-82
2022/04/06 08:42:25;;;;;;;4.73;4.23;;;12.10;99.90;;;;;;5054004;28;20480;-81
2022/04/06 08:45:10;;;;;;;4.73;4.27;;;11.80;99.90;;;;;;5070120;28;20499;-82
2022/04/06 08:47:57;;;;;;;5.90;4.67;;;11.70;99.90;;;;;;5075095;28;20603;-82
2022/04/06 08:50:44;;;;;;;4.33;3.80;;;11.70;99.90;;;;;;5069979;28;20425;-82
2022/04/06 08:53:30;;;;;;;3.70;3.40;;;11.80;99.90;;;;;;5069421;28;20470;-81
2022/04/06 08:56:15;;;;;;;4.60;4.17;;;11.90;99.90;;;;;;5071092;28;20529;-82
2022/04/06 08:59:00;;;;;;;8.40;4.40;;;11.80;99.90;;;;;;5072749;28;20550;-82
2022/04/06 09:02:04;;;;;;;4.30;3.97;;;12.00;99.90;;;;;;5075693;28;20471;-81
2022/04/06 09:04:54;;;;;;;5.00;4.43;;;12.00;99.90;;;;;;5057809;28;20439;-83
2022/04/06 09:07:40;;;;;;;8.60;3.93;;;11.90;99.90;;;;;;5054512;28;20452;-81
2022/04/06 09:10:31;;;;;;;4.37;3.97;;;11.90;99.90;;;;;;5058436;28;20550;-83
2022/04/06 09:13:20;;;;;;;5.33;4.43;;;11.90;99.90;;;;;;5072781;28;20489;-81
2022/04/06 09:16:09;;;;;;;7.00;6.00;;;12.00;99.90;;;;;;5051189;28;20457;-82
2022/04/06 09:19:16;;;;;;;5.43;3.70;;;12.10;99.90;;;;;;5066448;28;20486;-81
2022/04/06 09:22:21;;;;;;;3.83;3.50;;;12.10;99.90;;;;;;5046524;28;20478;-81
2022/04/06 09:25:06;;;;;;;5.70;4.80;;;12.20;99.90;;;;;;5053776;28;20497;-80
2022/04/06 09:27:52;;;;;;;4.43;4.03;;;12.10;99.90;;;;;;5065937;28;20520;-82
2022/04/06 09:30:42;;;;;;;6.57;4.73;;;12.00;99.90;;;;;;5068609;28;20457;-81
2022/04/06 09:33:29;;;;;;;6.13;5.53;;;12.00;99.90;;;;;;5070230;28;20460;-80
2022/04/06 09:36:19;;;;;;;6.33;5.10;;;12.30;99.90;;;;;;5053806;28;21001;-83
2022/04/06 09:39:03;;;;;;;5.50;4.33;;;12.50;99.90;;;;;;5017343;28;20463;-80
2022/04/06 09:42:03;;;;;;;8.43;5.00;;;12.60;99.90;;;;;;5034369;28;20485;-81
2022/04/06 09:47:53;;;;;;;5.13;4.50;;;12.60;99.90;;;;;;5030003;28;20548;-82
2022/04/06 09:50:38;;;;;;;5.90;5.03;;;12.70;99.90;;;;;;5044753;28;20845;-82
2022/04/06 09:53:27;;;;;;;6.93;5.60;;;12.90;99.90;;;;;;5042767;28;20421;-83
2022/04/06 09:56:11;;;;;;;5.63;4.33;;;13.00;99.90;;;;;;5060160;28;20464;-81
2022/04/06 09:58:57;;;;;;;5.43;5.03;;;13.30;99.90;;;;;;5067075;28;21855;-82
2022/04/06 10:02:07;;;;;;;7.30;5.50;;;13.40;99.90;;;;;;5069784;28;20463;-81
2022/04/06 10:04:52;;;;;;;6.13;4.97;;;13.30;99.90;;;;;;5028983;28;20450;-82
2022/04/06 10:08:04;;;;;;;5.50;5.00;;;12.90;99.90;;;;;;5037364;28;20672;-82
2022/04/06 10:10:53;;;;;;;9.53;5.57;;;13.00;99.90;;;;;;5037409;28;20986;-82
2022/04/06 10:13:40;;;;;;;6.83;5.83;;;13.00;99.90;;;;;;5039776;28;20497;-81
2022/04/06 10:16:24;;;;;;;4.20;3.80;;;13.10;99.90;;;;;;5024148;28;21149;-82
2022/04/06 10:19:15;;;;;;;5.77;5.30;;;13.20;99.90;;;;;;5030989;28;20506;-83
2022/04/06 10:22:09;;;;;;;8.63;5.50;;;13.60;99.90;;;;;;5034099;28;20489;-81
2022/04/06 10:25:17;;;;;;;6.50;5.87;;;13.20;99.90;;;;;;4986702;28;20500;-80
2022/04/06 10:28:09;;;;;;;5.20;4.40;;;13.60;99.90;;;;;;5027922;28;20961;-80
2022/04/06 10:31:16;;;;;;;5.47;4.30;;;13.60;99.90;;;;;;5043113;28;20538;-83
2022/04/06 10:34:19;;;;;;;9.33;5.23;;;13.80;99.90;;;;;;5046312;28;20454;-79
2022/04/06 10:37:06;;;;;;;6.33;5.50;;;13.60;99.90;;;;;;5085867;28;20420;-81
2022/04/06 10:40:00;;;;;;;6.53;5.87;;;13.30;99.90;;;;;;5084661;28;20863;-80
2022/04/06 10:42:46;;;;;;;5.20;4.63;;;13.50;99.90;;;;;;5078299;28;20513;-81
2022/04/06 10:45:35;;;;;;;5.53;4.80;;;14.00;99.90;;;;;;5093218;28;20506;-82
2022/04/06 10:48:20;;;;;;;9.50;4.60;;;14.30;99.90;;;;;;5067265;28;20637;-81
2022/04/06 10:51:27;;;;;;;6.63;5.60;;;14.10;99.90;;;;;;5064126;28;20489;-81
2022/04/06 10:54:40;;;;;;;5.30;4.80;;;14.60;99.90;;;;;;5091569;28;20452;-81
2022/04/06 10:57:58;;;;;;;7.87;5.37;;;14.70;99.90;;;;;;5079091;28;20448;-80
2022/04/06 11:00:43;;;;;;;11.23;6.43;;;14.70;99.90;;;;;;5084499;28;20492;-82
2022/04/06 11:03:35;;;;;;;6.77;5.00;;;14.80;99.90;;;;;;5077306;28;20454;-79
2022/04/06 11:07:00;;;;;;;5.10;4.43;;;14.90;99.90;;;;;;5067943;28;20495;-80
2022/04/06 11:13:00;;;;;;;5.83;5.13;;;14.90;99.90;;;;;;5005502;28;20578;-80
2022/04/06 11:16:05;;;;;;;5.07;3.30;;;14.90;99.90;;;;;;5022695;28;20418;-80
2022/04/06 11:18:50;;;;;;;10.30;5.87;;;14.80;99.90;;;;;;4991917;28;20794;-80
2022/04/06 11:21:44;;;;;;;4.70;4.30;;;14.90;99.90;;;;;;4988678;28;20467;-81
2022/04/06 11:24:31;;;;;;;7.50;4.60;;;14.80;99.90;;;;;;5006399;28;20456;-82
2022/04/06 11:27:32;;;;;;;5.57;4.50;;;14.80;99.90;;;;;;5002465;28;20503;-80
2022/04/06 11:30:19;;;;;;;4.83;4.40;;;14.70;99.90;;;;;;4983977;28;20453;-82
2022/04/06 11:33:05;;;;;;;5.23;4.70;;;14.80;99.90;;;;;;4991454;28;20459;-79
2022/04/06 11:35:50;;;;;;;4.63;4.23;;;14.70;99.90;;;;;;4986533;28;20756;-81
2022/04/06 11:38:34;;;;;;;3.93;3.63;;;15.00;99.90;;;;;;5004726;28;20483;-81
2022/04/06 11:41:19;;;;;;;6.20;3.83;;;14.90;99.90;;;;;;5022773;28;20460;-80
2022/04/06 11:44:04;;;;;;;3.80;3.50;;;15.20;99.90;;;;;;5021309;28;20506;-81
2022/04/06 11:46:48;;;;;;;4.00;3.60;;;14.50;99.90;;;;;;5019808;28;20470;-82
2022/04/06 11:49:35;;;;;;;3.30;3.00;;;14.10;99.90;;;;;;5034902;28;20767;-82
2022/04/06 11:52:19;;;;;;;4.47;2.73;;;14.50;99.90;;;;;;5074850;28;20488;-82
2022/04/06 11:55:07;;;;;;;3.53;3.10;;;15.20;99.90;;;;;;5053725;28;20492;-81
2022/04/06 11:57:53;;;;;;;7.07;3.47;;;15.40;99.90;;;;;;5062653;28;21045;-85
2022/04/06 12:00:40;;;;;;;6.80;6.40;;;15.40;99.90;;;;;;5074409;28;20543;-83
2022/04/06 12:03:30;;;;;;;4.60;2.90;;;14.90;99.90;;;;;;5082514;28;20463;-83
2022/04/06 12:06:16;;;;;;;7.23;3.07;;;15.40;99.90;;;;;;5062750;28;20412;-85
2022/04/06 12:09:03;;;;;;;7.40;3.07;;;16.60;99.90;;;;;;5085056;28;20474;-84
2022/04/06 12:11:51;;;;;;;6.40;3.23;;;16.40;99.90;;;;;;5066080;28;20468;-84
2022/04/06 12:14:37;;;;;;;4.77;3.60;;;16.60;99.90;;;;;;5073407;28;20489;-83
2022/04/06 12:17:22;;;;;;;4.70;3.07;;;15.80;99.90;;;;;;5057533;28;20434;-84
2022/04/06 12:20:25;;;;;;;3.47;3.17;;;15.80;99.90;;;;;;5052196;28;20425;-85
2022/04/06 12:23:11;;;;;;;3.80;2.67;;;15.40;99.90;;;;;;5079635;28;20606;-84
2022/04/06 12:25:56;;;;;;;2.90;2.70;;;15.10;99.90;;;;;;5074293;28;20500;-82
2022/04/06 12:28:43;;;;;;;7.10;3.23;;;14.60;99.90;;;;;;5065535;28;20444;-81
2022/04/06 12:31:36;;;;;;;7.00;3.53;;;14.50;99.90;;;;;;5070225;28;20440;-81
2022/04/06 12:34:31;;;;;;;2.37;2.17;;;14.80;99.90;;;;;;5060249;28;20452;-81
2022/04/06 12:37:31;;;;;;;3.17;2.87;;;14.90;99.90;;;;;;5056552;28;20429;-83
2022/04/06 12:40:23;;;;;;;2.70;2.50;;;14.10;99.90;;;;;;5054863;28;20602;-82
2022/04/06 12:43:23;;;;;;;3.17;2.87;;;14.10;99.90;;;;;;5054707;28;20472;-81
2022/04/06 12:46:08;;;;;;;2.70;2.47;;;14.10;99.90;;;;;;5050684;28;20459;-82
2022/04/06 12:49:36;;;;;;;3.40;3.10;;;14.10;99.90;;;;;;5003485;28;22189;-82
2022/04/06 12:52:24;;;;;;;5.07;2.83;;;14.10;99.90;;;;;;5000922;28;20594;-81
2022/04/06 12:55:12;;;;;;;2.27;2.13;;;14.30;99.90;;;;;;5005299;28;20503;-82
2022/04/06 12:58:14;;;;;;;5.73;3.00;;;14.20;99.90;;;;;;5000505;28;20492;-81
2022/04/06 13:00:58;;;;;;;5.37;3.00;;;14.20;99.90;;;;;;4991735;28;20594;-81
2022/04/06 13:03:56;;;;;;;3.00;2.70;;;14.10;99.90;;;;;;4998774;28;20439;-82
2022/04/06 13:06:41;;;;;;;4.90;3.33;;;14.20;99.90;;;;;;5010214;28;20514;-81
2022/04/06 13:09:29;;;;;;;3.17;2.93;;;14.20;99.90;;;;;;4999602;28;20510;-80
2022/04/06 13:12:13;;;;;;;3.83;3.20;;;14.30;99.90;;;;;;4981975;28;20459;-82
2022/04/06 13:15:00;;;;;;;2.78;2.58;;;14.50;99.90;;;;;;5006051;28;20445;-82
2022/04/06 13:17:47;;;;;;;7.47;2.90;;;15.00;99.90;;;;;;5012425;28;20296;-80
2022/04/06 13:20:31;;;;;;;3.23;3.03;;;15.30;99.90;;;;;;5050135;28;20472;-81
2022/04/06 13:23:16;;;;;;;4.37;2.90;;;14.60;99.90;;;;;;5064574;28;20453;-81
2022/04/06 13:26:02;;;;;;;2.70;2.47;;;14.10;99.90;;;;;;5052295;28;20487;-81
2022/04/06 13:28:47;;;;;;;4.60;3.20;;;14.20;99.90;;;;;;5073401;28;20465;-83
2022/04/06 13:31:32;;;;;;;4.23;3.43;;;14.40;99.90;;;;;;5073426;28;20516;-82
2022/04/06 13:34:20;;;;;;;2.63;2.43;;;14.90;99.90;;;;;;5070124;28;20513;-80
2022/04/06 13:37:05;;;;;;;3.13;2.10;;;15.30;99.90;;;;;;5089024;28;20481;-83
2022/04/06 13:39:49;;;;;;;2.93;2.73;;;15.50;99.90;;;;;;5059924;28;20494;-80
2022/04/06 13:42:34;;;;;;;2.80;2.60;;;15.00;99.90;;;;;;5060455;28;20477;-82
2022/04/06 13:45:19;;;;;;;3.80;3.37;;;16.00;99.90;;;;;;5075847;28;20445;-80
2022/04/06 13:48:04;;;;;;;3.33;3.03;;;16.60;99.90;;;;;;5068576;28;20473;-82
2022/04/06 13:50:49;;;;;;;3.73;3.43;;;17.30;99.90;;;;;;5060973;28;20444;-80
2022/04/06 13:53:34;;;;;;;2.80;2.40;;;16.10;99.90;;;;;;5055870;28;20421;-82
2022/04/06 13:56:18;;;;;;;3.70;3.40;;;16.10;99.90;;;;;;5069519;28;20492;-80
2022/04/06 13:59:03;;;;;;;3.30;3.00;;;16.80;99.90;;;;;;5070544;28;20439;-82
2022/04/06 14:01:48;;;;;;;3.97;3.40;;;17.30;99.90;;;;;;5057959;28;20429;-80
2022/04/06 14:04:33;;;;;;;3.40;3.10;;;15.30;99.90;;;;;;5059180;28;20510;-80
2022/04/06 14:07:17;;;;;;;3.77;3.40;;;15.10;99.90;;;;;;5070397;28;20461;-80
2022/04/06 14:10:05;;;;;;;3.00;2.77;;;15.40;99.90;;;;;;5066681;28;20422;-81
2022/04/06 14:12:49;;;;;;;3.53;3.23;;;16.00;99.90;;;;;;5097483;28;20444;-81
2022/04/06 14:15:34;;;;;;;3.17;2.93;;;15.50;99.90;;;;;;5072792;28;20592;-80
2022/04/06 14:18:19;;;;;;;3.10;2.90;;;15.90;99.90;;;;;;5097628;28;20446;-81
2022/04/06 14:21:04;;;;;;;3.03;2.73;;;15.60;99.90;;;;;;5070728;28;20450;-81
2022/04/06 14:23:50;;;;;;;3.23;3.03;;;15.40;99.90;;;;;;5085544;28;20429;-79
2022/04/06 14:26:37;;;;;;;4.33;3.23;;;16.20;99.90;;;;;;5092021;28;20495;-80
2022/04/06 14:29:22;;;;;;;2.50;2.30;;;15.80;99.90;;;;;;5074862;28;20428;-80
2022/04/06 14:32:07;;;;;;;2.50;2.30;;;16.10;99.90;;;;;;5091442;28;20461;-79
2022/04/06 14:35:02;;;;;;;3.10;2.80;;;16.90;99.90;;;;;;5075639;28;20571;-78
2022/04/06 14:37:48;;;;;;;3.70;3.13;;;17.40;99.90;;;;;;5087815;28;20453;-79
2022/04/06 14:40:33;;;;;;;3.00;2.70;;;17.20;99.90;;;;;;5099689;28;20444;-79
2022/04/06 14:43:20;;;;;;;3.37;3.07;;;18.30;99.90;;;;;;5107155;28;20433;-81